createdAt,value
2018-07-09T00:05:06.075Z,22.10
2018-07-09T00:15:10.794Z,22.10
2018-07-09T00:25:15.672Z,22.10
2018-07-09T00:35:20.438Z,22.20
2018-07-09T00:45:25.120Z,22.10
2018-07-09T00:55:30.130Z,22.10
2018-07-09T01:05:35.270Z,22.10
2018-07-09T01:15:40.156Z,22.10
2018-07-09T01:25:44.835Z,22.10
2018-07-09T01:35:49.732Z,22.20
2018-07-09T01:45:54.628Z,22.20
2018-07-09T01:55:59.598Z,22.10
2018-07-09T02:06:04.380Z,22.20
2018-07-09T02:16:09.071Z,22.20
2018-07-09T02:46:22.576Z,22.10
2018-07-09T02:56:27.181Z,22.10
2018-07-09T03:06:32.012Z,22.10
2018-07-09T03:16:36.832Z,22.20
2018-07-09T03:26:41.695Z,22.10
2018-07-09T03:36:46.583Z,22.10
2018-07-09T03:46:51.325Z,22.00
2018-07-09T03:56:56.034Z,22.10
2018-07-09T04:07:00.715Z,22.10
2018-07-09T04:17:05.485Z,22.10
2018-07-09T04:27:10.372Z,22.10
2018-07-09T04:37:15.266Z,22.00
2018-07-09T04:57:25.511Z,22.00
2018-07-09T05:07:30.521Z,22.10
2018-07-09T05:17:35.286Z,22.10
2018-07-09T05:27:40.184Z,22.10
2018-07-09T05:37:46.076Z,22.00
2018-07-09T05:47:51.200Z,22.00
2018-07-09T05:57:55.935Z,21.90
2018-07-09T06:08:00.850Z,21.90
2018-07-09T06:18:05.643Z,21.90
2018-07-09T06:28:11.552Z,21.90
2018-07-09T06:48:21.805Z,21.90
2018-07-09T06:58:26.583Z,21.90
2018-07-09T07:18:35.832Z,22.00
2018-07-09T07:28:40.568Z,22.00
2018-07-09T07:38:45.595Z,22.00
2018-07-09T07:48:50.607Z,22.00
2018-07-09T08:09:00.831Z,22.00
2018-07-09T08:19:05.736Z,22.00
2018-07-09T08:29:10.617Z,22.00
2018-07-09T08:49:21.408Z,22.00
2018-07-09T08:59:26.218Z,22.10
2018-07-09T09:09:31.075Z,22.10
2018-07-09T09:19:35.865Z,22.20
2018-07-09T09:29:40.716Z,22.20
2018-07-09T09:39:45.414Z,22.30
2018-07-09T09:49:50.888Z,22.30
2018-07-09T09:59:55.591Z,22.40
2018-07-09T10:20:04.950Z,22.30
2018-07-09T10:40:14.213Z,22.40
2018-07-09T11:00:23.572Z,22.40
2018-07-09T11:10:28.249Z,22.40
2018-07-09T11:20:33.151Z,22.40
2018-07-09T11:30:37.864Z,22.40
2018-07-09T11:40:42.795Z,22.40
2018-07-09T11:50:47.564Z,22.40
2018-07-09T12:00:53.246Z,22.50
2018-07-09T12:10:59.050Z,22.50
2018-07-09T12:21:04.357Z,22.50
2018-07-09T12:31:09.038Z,22.60
2018-07-09T12:51:18.580Z,22.60
2018-07-09T13:01:23.325Z,22.60
2018-07-09T13:11:28.122Z,22.60
2018-07-09T13:21:32.901Z,22.70
2018-07-09T13:31:37.819Z,22.60
2018-07-09T13:41:42.615Z,22.60
2018-07-09T13:51:47.564Z,22.70
2018-07-09T14:01:52.445Z,22.80
2018-07-09T14:11:57.336Z,22.80
2018-07-09T14:22:02.252Z,22.80
2018-07-09T14:32:07.607Z,22.80
2018-07-09T14:42:12.490Z,22.80
2018-07-09T21:23:14.907Z,23.70
2018-07-09T21:33:17.780Z,23.70
2018-07-09T21:43:21.356Z,23.80
2018-07-09T21:53:25.208Z,23.70
2018-07-09T22:03:28.145Z,23.80
2018-07-09T22:13:30.898Z,23.80
2018-07-09T22:33:39.795Z,23.60
2018-07-09T22:44:01.203Z,23.60
2018-07-09T23:04:10.861Z,23.50
2018-07-09T23:24:57.228Z,23.40
2018-07-09T23:35:00.210Z,23.40
2018-07-09T23:45:03.136Z,23.30
2018-07-09T23:55:05.907Z,23.20
